sensor_id;sensor_type;location;lat;lon;timestamp;P1;durP1;ratioP1;P2;durP2;ratioP2
85703;SDS011;76141;49.082;19.306;2024-01-30T00:01:18;49.00;;;22.48;;
85703;SDS011;76141;49.082;19.306;2024-01-30T00:03:44;46.10;;;20.50;;
85703;SDS011;76141;49.082;19.306;2024-01-30T00:06:09;40.03;;;20.85;;
85703;SDS011;76141;49.082;19.306;2024-01-30T00:08:34;38.53;;;20.75;;
85703;SDS011;76141;49.082;19.306;2024-01-30T00:11:00;43.80;;;21.92;;
85703;SDS011;76141;49.082;19.306;2024-01-30T00:13:26;39.53;;;20.67;;
85703;SDS011;76141;49.082;19.306;2024-01-30T00:15:52;48.08;;;22.98;;
85703;SDS011;76141;49.082;19.306;2024-01-30T00:18:17;44.28;;;21.30;;
85703;SDS011;76141;49.082;19.306;2024-01-30T00:20:43;47.60;;;22.85;;
85703;SDS011;76141;49.082;19.306;2024-01-30T00:23:09;49.45;;;23.60;;
85703;SDS011;76141;49.082;19.306;2024-01-30T00:25:35;47.35;;;23.25;;
85703;SDS011;76141;49.082;19.306;2024-01-30T00:28:00;53.03;;;24.83;;
85703;SDS011;76141;49.082;19.306;2024-01-30T00:30:26;48.85;;;24.05;;
85703;SDS011;76141;49.082;19.306;2024-01-30T00:32:52;51.58;;;23.33;;
85703;SDS011;76141;49.082;19.306;2024-01-30T00:35:17;50.90;;;23.55;;
85703;SDS011;76141;49.082;19.306;2024-01-30T00:37:43;51.65;;;24.35;;
85703;SDS011;76141;49.082;19.306;2024-01-30T00:40:08;47.95;;;24.13;;
85703;SDS011;76141;49.082;19.306;2024-01-30T00:42:40;51.67;;;24.42;;
85703;SDS011;76141;49.082;19.306;2024-01-30T00:45:15;59.63;;;30.23;;
85703;SDS011;76141;49.082;19.306;2024-01-30T00:47:40;47.60;;;23.33;;
85703;SDS011;76141;49.082;19.306;2024-01-30T00:50:06;54.65;;;24.58;;
85703;SDS011;76141;49.082;19.306;2024-01-30T00:52:32;45.50;;;23.35;;
85703;SDS011;76141;49.082;19.306;2024-01-30T00:54:58;51.35;;;24.90;;
85703;SDS011;76141;49.082;19.306;2024-01-30T00:57:24;53.03;;;24.13;;
85703;SDS011;76141;49.082;19.306;2024-01-30T00:59:49;48.97;;;22.95;;
85703;SDS011;76141;49.082;19.306;2024-01-30T01:02:15;52.30;;;23.20;;
85703;SDS011;76141;49.082;19.306;2024-01-30T01:04:42;51.13;;;24.30;;
85703;SDS011;76141;49.082;19.306;2024-01-30T01:07:08;48.78;;;22.83;;
85703;SDS011;76141;49.082;19.306;2024-01-30T01:09:34;46.47;;;22.77;;
85703;SDS011;76141;49.082;19.306;2024-01-30T01:11:59;44.70;;;22.70;;
85703;SDS011;76141;49.082;19.306;2024-01-30T01:14:24;49.88;;;22.25;;
85703;SDS011;76141;49.082;19.306;2024-01-30T01:16:50;45.53;;;23.05;;
85703;SDS011;76141;49.082;19.306;2024-01-30T01:19:16;46.03;;;22.27;;
85703;SDS011;76141;49.082;19.306;2024-01-30T01:21:41;50.00;;;22.90;;
85703;SDS011;76141;49.082;19.306;2024-01-30T01:24:06;46.33;;;22.90;;
85703;SDS011;76141;49.082;19.306;2024-01-30T01:26:32;46.00;;;22.10;;
85703;SDS011;76141;49.082;19.306;2024-01-30T01:28:57;44.53;;;22.10;;
85703;SDS011;76141;49.082;19.306;2024-01-30T01:31:23;43.05;;;22.00;;
85703;SDS011;76141;49.082;19.306;2024-01-30T01:33:49;43.83;;;21.40;;
85703;SDS011;76141;49.082;19.306;2024-01-30T01:36:15;46.72;;;22.42;;
85703;SDS011;76141;49.082;19.306;2024-01-30T01:38:40;44.20;;;22.17;;
85703;SDS011;76141;49.082;19.306;2024-01-30T01:41:06;49.97;;;22.08;;
85703;SDS011;76141;49.082;19.306;2024-01-30T01:43:31;49.70;;;23.15;;
85703;SDS011;76141;49.082;19.306;2024-01-30T01:45:57;54.35;;;23.05;;
85703;SDS011;76141;49.082;19.306;2024-01-30T01:48:22;49.45;;;23.55;;
85703;SDS011;76141;49.082;19.306;2024-01-30T01:50:48;54.78;;;24.50;;
85703;SDS011;76141;49.082;19.306;2024-01-30T01:53:13;54.85;;;24.13;;
85703;SDS011;76141;49.082;19.306;2024-01-30T01:55:40;52.35;;;22.90;;
85703;SDS011;76141;49.082;19.306;2024-01-30T01:58:06;51.55;;;23.40;;
85703;SDS011;76141;49.082;19.306;2024-01-30T02:00:33;65.53;;;23.95;;
85703;SDS011;76141;49.082;19.306;2024-01-30T02:03:00;57.15;;;24.75;;
85703;SDS011;76141;49.082;19.306;2024-01-30T02:05:26;51.80;;;24.67;;
85703;SDS011;76141;49.082;19.306;2024-01-30T02:07:51;54.72;;;24.63;;
85703;SDS011;76141;49.082;19.306;2024-01-30T02:10:17;51.78;;;22.75;;
85703;SDS011;76141;49.082;19.306;2024-01-30T02:12:43;48.15;;;23.55;;
85703;SDS011;76141;49.082;19.306;2024-01-30T02:15:12;52.75;;;23.35;;
85703;SDS011;76141;49.082;19.306;2024-01-30T02:17:38;53.08;;;23.92;;
85703;SDS011;76141;49.082;19.306;2024-01-30T02:20:04;52.10;;;24.30;;
85703;SDS011;76141;49.082;19.306;2024-01-30T02:22:30;54.97;;;25.02;;
85703;SDS011;76141;49.082;19.306;2024-01-30T02:24:57;53.63;;;24.73;;
85703;SDS011;76141;49.082;19.306;2024-01-30T02:27:23;59.13;;;26.17;;
85703;SDS011;76141;49.082;19.306;2024-01-30T02:29:48;53.08;;;23.58;;
85703;SDS011;76141;49.082;19.306;2024-01-30T02:32:14;51.45;;;24.08;;
85703;SDS011;76141;49.082;19.306;2024-01-30T02:34:40;50.90;;;23.15;;
85703;SDS011;76141;49.082;19.306;2024-01-30T02:37:05;50.45;;;22.60;;
85703;SDS011;76141;49.082;19.306;2024-01-30T02:39:31;49.08;;;22.73;;
85703;SDS011;76141;49.082;19.306;2024-01-30T02:41:56;45.22;;;21.83;;
85703;SDS011;76141;49.082;19.306;2024-01-30T02:44:22;43.58;;;20.90;;
85703;SDS011;76141;49.082;19.306;2024-01-30T02:46:47;44.95;;;21.42;;
85703;SDS011;76141;49.082;19.306;2024-01-30T02:49:13;42.47;;;20.45;;
85703;SDS011;76141;49.082;19.306;2024-01-30T02:51:38;41.53;;;20.98;;
85703;SDS011;76141;49.082;19.306;2024-01-30T02:54:04;44.13;;;20.80;;
85703;SDS011;76141;49.082;19.306;2024-01-30T02:56:29;43.13;;;19.88;;
85703;SDS011;76141;49.082;19.306;2024-01-30T02:58:54;41.55;;;20.65;;
85703;SDS011;76141;49.082;19.306;2024-01-30T03:01:20;43.63;;;20.63;;
85703;SDS011;76141;49.082;19.306;2024-01-30T03:03:45;42.72;;;21.77;;
85703;SDS011;76141;49.082;19.306;2024-01-30T03:06:11;40.17;;;20.85;;
85703;SDS011;76141;49.082;19.306;2024-01-30T03:08:36;46.33;;;21.35;;
85703;SDS011;76141;49.082;19.306;2024-01-30T03:11:02;47.00;;;22.55;;
85703;SDS011;76141;49.082;19.306;2024-01-30T03:13:28;44.08;;;21.45;;
85703;SDS011;76141;49.082;19.306;2024-01-30T03:15:53;46.35;;;22.63;;
85703;SDS011;76141;49.082;19.306;2024-01-30T03:18:19;44.90;;;22.33;;
85703;SDS011;76141;49.082;19.306;2024-01-30T03:20:44;47.97;;;23.75;;
85703;SDS011;76141;49.082;19.306;2024-01-30T03:23:10;44.30;;;23.27;;
85703;SDS011;76141;49.082;19.306;2024-01-30T03:25:35;46.97;;;23.42;;
85703;SDS011;76141;49.082;19.306;2024-01-30T03:28:00;53.35;;;26.40;;
85703;SDS011;76141;49.082;19.306;2024-01-30T03:30:26;55.17;;;25.95;;
85703;SDS011;76141;49.082;19.306;2024-01-30T03:32:51;56.03;;;25.58;;
85703;SDS011;76141;49.082;19.306;2024-01-30T03:35:18;55.25;;;26.10;;
85703;SDS011;76141;49.082;19.306;2024-01-30T03:37:44;48.15;;;24.77;;
85703;SDS011;76141;49.082;19.306;2024-01-30T03:40:09;50.60;;;25.38;;
85703;SDS011;76141;49.082;19.306;2024-01-30T03:42:35;46.78;;;23.95;;
85703;SDS011;76141;49.082;19.306;2024-01-30T03:45:01;49.50;;;24.58;;
85703;SDS011;76141;49.082;19.306;2024-01-30T03:47:27;50.55;;;25.10;;
85703;SDS011;76141;49.082;19.306;2024-01-30T03:49:53;50.10;;;24.98;;
85703;SDS011;76141;49.082;19.306;2024-01-30T03:52:18;53.72;;;26.98;;
85703;SDS011;76141;49.082;19.306;2024-01-30T03:54:43;50.08;;;24.42;;
85703;SDS011;76141;49.082;19.306;2024-01-30T03:57:09;52.67;;;26.30;;
85703;SDS011;76141;49.082;19.306;2024-01-30T03:59:34;49.70;;;26.02;;
85703;SDS011;76141;49.082;19.306;2024-01-30T04:02:00;54.20;;;25.83;;
85703;SDS011;76141;49.082;19.306;2024-01-30T04:04:25;53.83;;;26.30;;
85703;SDS011;76141;49.082;19.306;2024-01-30T04:06:51;51.40;;;25.10;;
85703;SDS011;76141;49.082;19.306;2024-01-30T04:09:17;45.72;;;24.80;;
85703;SDS011;76141;49.082;19.306;2024-01-30T04:11:42;45.90;;;24.50;;
85703;SDS011;76141;49.082;19.306;2024-01-30T04:14:08;49.40;;;24.60;;
85703;SDS011;76141;49.082;19.306;2024-01-30T04:16:33;53.15;;;26.15;;
85703;SDS011;76141;49.082;19.306;2024-01-30T04:18:59;51.85;;;24.95;;
85703;SDS011;76141;49.082;19.306;2024-01-30T04:21:25;47.85;;;25.08;;
85703;SDS011;76141;49.082;19.306;2024-01-30T04:23:51;46.25;;;24.48;;
85703;SDS011;76141;49.082;19.306;2024-01-30T04:26:16;53.58;;;27.17;;
85703;SDS011;76141;49.082;19.306;2024-01-30T04:28:44;59.50;;;27.45;;
85703;SDS011;76141;49.082;19.306;2024-01-30T04:31:09;49.25;;;25.63;;
85703;SDS011;76141;49.082;19.306;2024-01-30T04:33:35;54.17;;;25.08;;
85703;SDS011;76141;49.082;19.306;2024-01-30T04:36:01;50.25;;;25.02;;
85703;SDS011;76141;49.082;19.306;2024-01-30T04:38:26;51.30;;;25.95;;
85703;SDS011;76141;49.082;19.306;2024-01-30T04:40:52;52.50;;;26.17;;
85703;SDS011;76141;49.082;19.306;2024-01-30T04:43:17;47.75;;;23.92;;
85703;SDS011;76141;49.082;19.306;2024-01-30T04:45:44;50.85;;;25.00;;
85703;SDS011;76141;49.082;19.306;2024-01-30T04:48:09;49.78;;;24.27;;
85703;SDS011;76141;49.082;19.306;2024-01-30T04:50:35;52.03;;;24.88;;
85703;SDS011;76141;49.082;19.306;2024-01-30T04:53:01;46.08;;;24.30;;
85703;SDS011;76141;49.082;19.306;2024-01-30T04:55:26;50.35;;;24.55;;
85703;SDS011;76141;49.082;19.306;2024-01-30T04:57:52;46.90;;;24.95;;
85703;SDS011;76141;49.082;19.306;2024-01-30T05:00:17;46.08;;;23.40;;
85703;SDS011;76141;49.082;19.306;2024-01-30T05:02:43;45.00;;;23.10;;
85703;SDS011;76141;49.082;19.306;2024-01-30T05:05:08;45.75;;;23.98;;
85703;SDS011;76141;49.082;19.306;2024-01-30T05:07:34;45.42;;;23.17;;
85703;SDS011;76141;49.082;19.306;2024-01-30T05:09:59;50.35;;;23.92;;
85703;SDS011;76141;49.082;19.306;2024-01-30T05:12:25;49.17;;;23.67;;
85703;SDS011;76141;49.082;19.306;2024-01-30T05:14:50;45.17;;;22.88;;
85703;SDS011;76141;49.082;19.306;2024-01-30T05:17:16;46.53;;;23.38;;
85703;SDS011;76141;49.082;19.306;2024-01-30T05:19:43;48.03;;;24.63;;
85703;SDS011;76141;49.082;19.306;2024-01-30T05:22:09;51.20;;;25.42;;
85703;SDS011;76141;49.082;19.306;2024-01-30T05:24:35;56.17;;;24.48;;
85703;SDS011;76141;49.082;19.306;2024-01-30T05:27:02;46.72;;;23.33;;
85703;SDS011;76141;49.082;19.306;2024-01-30T05:29:27;45.80;;;23.83;;
85703;SDS011;76141;49.082;19.306;2024-01-30T05:31:53;47.42;;;23.98;;
85703;SDS011;76141;49.082;19.306;2024-01-30T05:34:18;51.72;;;24.70;;
85703;SDS011;76141;49.082;19.306;2024-01-30T05:36:44;45.88;;;23.90;;
85703;SDS011;76141;49.082;19.306;2024-01-30T05:39:10;51.08;;;24.55;;
85703;SDS011;76141;49.082;19.306;2024-01-30T05:41:36;49.85;;;24.73;;
85703;SDS011;76141;49.082;19.306;2024-01-30T05:44:01;50.95;;;23.70;;
85703;SDS011;76141;49.082;19.306;2024-01-30T05:46:26;43.78;;;21.85;;
85703;SDS011;76141;49.082;19.306;2024-01-30T05:48:52;48.25;;;23.77;;
85703;SDS011;76141;49.082;19.306;2024-01-30T05:51:17;49.75;;;23.90;;
85703;SDS011;76141;49.082;19.306;2024-01-30T05:53:43;48.65;;;25.50;;
85703;SDS011;76141;49.082;19.306;2024-01-30T05:56:08;49.58;;;24.35;;
85703;SDS011;76141;49.082;19.306;2024-01-30T05:58:34;48.58;;;24.98;;
85703;SDS011;76141;49.082;19.306;2024-01-30T06:00:59;53.38;;;25.48;;
85703;SDS011;76141;49.082;19.306;2024-01-30T06:03:25;48.47;;;24.42;;
85703;SDS011;76141;49.082;19.306;2024-01-30T06:05:50;47.35;;;22.70;;
85703;SDS011;76141;49.082;19.306;2024-01-30T06:08:17;46.00;;;24.55;;
85703;SDS011;76141;49.082;19.306;2024-01-30T06:10:42;53.35;;;27.98;;
85703;SDS011;76141;49.082;19.306;2024-01-30T06:13:08;49.78;;;24.73;;
85703;SDS011;76141;49.082;19.306;2024-01-30T06:15:33;48.03;;;25.90;;
85703;SDS011;76141;49.082;19.306;2024-01-30T06:17:59;63.90;;;34.88;;
85703;SDS011;76141;49.082;19.306;2024-01-30T06:20:24;52.90;;;28.75;;
85703;SDS011;76141;49.082;19.306;2024-01-30T06:22:50;61.60;;;35.95;;
85703;SDS011;76141;49.082;19.306;2024-01-30T06:25:15;63.60;;;38.38;;
85703;SDS011;76141;49.082;19.306;2024-01-30T06:27:42;51.53;;;30.05;;
85703;SDS011;76141;49.082;19.306;2024-01-30T06:30:08;47.40;;;24.45;;
85703;SDS011;76141;49.082;19.306;2024-01-30T06:32:34;41.55;;;22.52;;
85703;SDS011;76141;49.082;19.306;2024-01-30T06:35:01;45.22;;;23.02;;
85703;SDS011;76141;49.082;19.306;2024-01-30T06:37:27;48.15;;;23.70;;
85703;SDS011;76141;49.082;19.306;2024-01-30T06:39:52;46.78;;;24.02;;
85703;SDS011;76141;49.082;19.306;2024-01-30T06:42:18;46.70;;;23.40;;
85703;SDS011;76141;49.082;19.306;2024-01-30T06:44:44;48.33;;;24.48;;
85703;SDS011;76141;49.082;19.306;2024-01-30T06:47:10;39.35;;;22.25;;
85703;SDS011;76141;49.082;19.306;2024-01-30T06:49:35;55.58;;;24.15;;
85703;SDS011;76141;49.082;19.306;2024-01-30T06:52:04;46.83;;;22.52;;
85703;SDS011;76141;49.082;19.306;2024-01-30T06:54:30;44.42;;;22.60;;
85703;SDS011;76141;49.082;19.306;2024-01-30T06:56:56;40.28;;;22.17;;
85703;SDS011;76141;49.082;19.306;2024-01-30T06:59:22;45.15;;;23.30;;
85703;SDS011;76141;49.082;19.306;2024-01-30T07:01:47;45.67;;;23.90;;
85703;SDS011;76141;49.082;19.306;2024-01-30T07:04:13;44.03;;;22.58;;
85703;SDS011;76141;49.082;19.306;2024-01-30T07:06:38;40.20;;;22.48;;
85703;SDS011;76141;49.082;19.306;2024-01-30T07:09:04;43.60;;;24.08;;
85703;SDS011;76141;49.082;19.306;2024-01-30T07:11:30;47.38;;;23.98;;
85703;SDS011;76141;49.082;19.306;2024-01-30T07:13:56;50.05;;;25.83;;
85703;SDS011;76141;49.082;19.306;2024-01-30T07:16:21;48.45;;;25.10;;
85703;SDS011;76141;49.082;19.306;2024-01-30T07:18:47;46.15;;;23.98;;
85703;SDS011;76141;49.082;19.306;2024-01-30T07:21:13;43.75;;;23.48;;
85703;SDS011;76141;49.082;19.306;2024-01-30T07:23:42;48.92;;;24.98;;
85703;SDS011;76141;49.082;19.306;2024-01-30T07:26:08;43.03;;;23.10;;
85703;SDS011;76141;49.082;19.306;2024-01-30T07:28:33;41.67;;;22.80;;
85703;SDS011;76141;49.082;19.306;2024-01-30T07:31:00;42.30;;;21.50;;
85703;SDS011;76141;49.082;19.306;2024-01-30T07:33:26;43.08;;;22.30;;
85703;SDS011;76141;49.082;19.306;2024-01-30T07:35:52;41.33;;;22.27;;
85703;SDS011;76141;49.082;19.306;2024-01-30T07:38:18;44.22;;;24.35;;
85703;SDS011;76141;49.082;19.306;2024-01-30T07:40:44;41.80;;;24.13;;
85703;SDS011;76141;49.082;19.306;2024-01-30T07:43:09;41.08;;;23.30;;
85703;SDS011;76141;49.082;19.306;2024-01-30T07:45:35;46.35;;;24.17;;
85703;SDS011;76141;49.082;19.306;2024-01-30T07:48:00;44.45;;;23.35;;
85703;SDS011;76141;49.082;19.306;2024-01-30T07:50:26;45.38;;;24.55;;
85703;SDS011;76141;49.082;19.306;2024-01-30T07:52:52;47.72;;;23.40;;
85703;SDS011;76141;49.082;19.306;2024-01-30T07:55:20;43.55;;;23.48;;
85703;SDS011;76141;49.082;19.306;2024-01-30T07:57:49;43.40;;;22.92;;
85703;SDS011;76141;49.082;19.306;2024-01-30T08:00:18;46.15;;;23.25;;
85703;SDS011;76141;49.082;19.306;2024-01-30T08:02:45;46.17;;;23.25;;
85703;SDS011;76141;49.082;19.306;2024-01-30T08:05:10;42.70;;;24.02;;
85703;SDS011;76141;49.082;19.306;2024-01-30T08:07:36;44.95;;;23.73;;
85703;SDS011;76141;49.082;19.306;2024-01-30T08:10:02;42.38;;;23.65;;
85703;SDS011;76141;49.082;19.306;2024-01-30T08:12:27;45.78;;;23.08;;
85703;SDS011;76141;49.082;19.306;2024-01-30T08:14:53;40.55;;;22.05;;
85703;SDS011;76141;49.082;19.306;2024-01-30T08:17:18;43.53;;;22.42;;
85703;SDS011;76141;49.082;19.306;2024-01-30T08:19:44;40.85;;;21.80;;
85703;SDS011;76141;49.082;19.306;2024-01-30T08:22:09;44.83;;;22.98;;
85703;SDS011;76141;49.082;19.306;2024-01-30T08:24:35;44.83;;;23.55;;
85703;SDS011;76141;49.082;19.306;2024-01-30T08:27:00;40.80;;;21.77;;
85703;SDS011;76141;49.082;19.306;2024-01-30T08:29:27;42.45;;;23.30;;
85703;SDS011;76141;49.082;19.306;2024-01-30T08:31:53;41.63;;;21.42;;
85703;SDS011;76141;49.082;19.306;2024-01-30T08:34:20;39.33;;;21.20;;
85703;SDS011;76141;49.082;19.306;2024-01-30T08:36:46;41.70;;;22.00;;
85703;SDS011;76141;49.082;19.306;2024-01-30T08:39:11;46.00;;;24.70;;
85703;SDS011;76141;49.082;19.306;2024-01-30T08:41:37;43.17;;;21.65;;
85703;SDS011;76141;49.082;19.306;2024-01-30T08:44:02;41.55;;;21.92;;
85703;SDS011;76141;49.082;19.306;2024-01-30T08:46:29;52.28;;;26.17;;
85703;SDS011;76141;49.082;19.306;2024-01-30T08:48:55;41.88;;;23.05;;
85703;SDS011;76141;49.082;19.306;2024-01-30T08:51:21;45.97;;;25.67;;
85703;SDS011;76141;49.082;19.306;2024-01-30T08:53:47;49.25;;;23.77;;
85703;SDS011;76141;49.082;19.306;2024-01-30T08:56:12;45.42;;;23.35;;
85703;SDS011;76141;49.082;19.306;2024-01-30T08:58:38;44.75;;;22.52;;
85703;SDS011;76141;49.082;19.306;2024-01-30T09:01:04;36.92;;;19.98;;
85703;SDS011;76141;49.082;19.306;2024-01-30T09:03:30;39.20;;;20.23;;
85703;SDS011;76141;49.082;19.306;2024-01-30T09:05:56;39.53;;;20.42;;
85703;SDS011;76141;49.082;19.306;2024-01-30T09:08:21;35.40;;;19.85;;
85703;SDS011;76141;49.082;19.306;2024-01-30T09:10:47;39.33;;;20.83;;
85703;SDS011;76141;49.082;19.306;2024-01-30T09:13:13;39.75;;;21.60;;
85703;SDS011;76141;49.082;19.306;2024-01-30T09:15:38;38.83;;;20.77;;
85703;SDS011;76141;49.082;19.306;2024-01-30T09:18:04;40.80;;;21.08;;
85703;SDS011;76141;49.082;19.306;2024-01-30T09:20:30;40.10;;;22.13;;
85703;SDS011;76141;49.082;19.306;2024-01-30T09:22:55;42.78;;;22.48;;
85703;SDS011;76141;49.082;19.306;2024-01-30T09:25:20;41.78;;;23.02;;
85703;SDS011;76141;49.082;19.306;2024-01-30T09:27:46;39.72;;;21.88;;
85703;SDS011;76141;49.082;19.306;2024-01-30T09:30:12;42.70;;;21.85;;
85703;SDS011;76141;49.082;19.306;2024-01-30T09:32:39;44.45;;;22.52;;
85703;SDS011;76141;49.082;19.306;2024-01-30T09:35:05;40.90;;;21.65;;
85703;SDS011;76141;49.082;19.306;2024-01-30T09:37:31;37.53;;;20.27;;
85703;SDS011;76141;49.082;19.306;2024-01-30T09:39:56;38.80;;;21.48;;
85703;SDS011;76141;49.082;19.306;2024-01-30T09:42:35;39.72;;;21.80;;
85703;SDS011;76141;49.082;19.306;2024-01-30T09:45:01;44.60;;;22.58;;
85703;SDS011;76141;49.082;19.306;2024-01-30T09:47:40;47.50;;;22.65;;
85703;SDS011;76141;49.082;19.306;2024-01-30T09:50:10;43.65;;;23.38;;
85703;SDS011;76141;49.082;19.306;2024-01-30T09:52:36;44.97;;;23.90;;
85703;SDS011;76141;49.082;19.306;2024-01-30T09:55:02;51.42;;;23.73;;
85703;SDS011;76141;49.082;19.306;2024-01-30T09:57:28;45.30;;;23.00;;
85703;SDS011;76141;49.082;19.306;2024-01-30T09:59:54;50.53;;;24.13;;
85703;SDS011;76141;49.082;19.306;2024-01-30T10:02:20;52.13;;;25.38;;
85703;SDS011;76141;49.082;19.306;2024-01-30T10:04:49;52.90;;;26.10;;
85703;SDS011;76141;49.082;19.306;2024-01-30T10:07:16;59.13;;;29.77;;
85703;SDS011;76141;49.082;19.306;2024-01-30T10:09:42;57.70;;;29.75;;
85703;SDS011;76141;49.082;19.306;2024-01-30T10:12:11;58.90;;;29.80;;
85703;SDS011;76141;49.082;19.306;2024-01-30T10:14:40;60.00;;;29.45;;
85703;SDS011;76141;49.082;19.306;2024-01-30T10:17:07;60.92;;;31.35;;
85703;SDS011;76141;49.082;19.306;2024-01-30T10:19:33;66.28;;;34.10;;
85703;SDS011;76141;49.082;19.306;2024-01-30T10:22:03;67.00;;;34.58;;
85703;SDS011;76141;49.082;19.306;2024-01-30T10:24:29;73.55;;;34.08;;
85703;SDS011;76141;49.082;19.306;2024-01-30T10:26:54;59.47;;;30.65;;
85703;SDS011;76141;49.082;19.306;2024-01-30T10:29:20;60.58;;;32.00;;
85703;SDS011;76141;49.082;19.306;2024-01-30T10:31:57;61.13;;;32.85;;
85703;SDS011;76141;49.082;19.306;2024-01-30T10:34:26;59.63;;;31.02;;
85703;SDS011;76141;49.082;19.306;2024-01-30T10:36:53;61.95;;;32.72;;
85703;SDS011;76141;49.082;19.306;2024-01-30T10:39:42;58.38;;;32.30;;
85703;SDS011;76141;49.082;19.306;2024-01-30T10:42:12;65.55;;;33.15;;
85703;SDS011;76141;49.082;19.306;2024-01-30T10:47:34;63.10;;;33.78;;
85703;SDS011;76141;49.082;19.306;2024-01-30T10:50:03;61.22;;;32.63;;
85703;SDS011;76141;49.082;19.306;2024-01-30T10:52:29;64.15;;;33.92;;
85703;SDS011;76141;49.082;19.306;2024-01-30T10:54:56;61.20;;;32.30;;
85703;SDS011;76141;49.082;19.306;2024-01-30T10:57:25;61.88;;;30.80;;
85703;SDS011;76141;49.082;19.306;2024-01-30T10:59:58;63.42;;;33.92;;
85703;SDS011;76141;49.082;19.306;2024-01-30T11:02:25;62.53;;;32.72;;
85703;SDS011;76141;49.082;19.306;2024-01-30T11:04:56;65.22;;;33.78;;
85703;SDS011;76141;49.082;19.306;2024-01-30T11:07:26;59.58;;;32.17;;
85703;SDS011;76141;49.082;19.306;2024-01-30T11:09:54;55.75;;;29.58;;
85703;SDS011;76141;49.082;19.306;2024-01-30T11:12:28;55.40;;;28.55;;
85703;SDS011;76141;49.082;19.306;2024-01-30T11:20:16;54.70;;;27.55;;
85703;SDS011;76141;49.082;19.306;2024-01-30T11:22:45;54.47;;;27.45;;
85703;SDS011;76141;49.082;19.306;2024-01-30T11:25:15;56.88;;;27.65;;
85703;SDS011;76141;49.082;19.306;2024-01-30T11:27:41;47.58;;;26.95;;
85703;SDS011;76141;49.082;19.306;2024-01-30T11:32:43;47.28;;;27.20;;
85703;SDS011;76141;49.082;19.306;2024-01-30T11:35:08;51.45;;;28.55;;
85703;SDS011;76141;49.082;19.306;2024-01-30T11:37:36;49.42;;;26.48;;
85703;SDS011;76141;49.082;19.306;2024-01-30T11:40:05;51.60;;;27.98;;
85703;SDS011;76141;49.082;19.306;2024-01-30T11:42:31;55.67;;;29.58;;
85703;SDS011;76141;49.082;19.306;2024-01-30T11:44:59;47.65;;;27.83;;
85703;SDS011;76141;49.082;19.306;2024-01-30T11:47:27;53.90;;;29.95;;
85703;SDS011;76141;49.082;19.306;2024-01-30T11:49:52;49.22;;;27.73;;
85703;SDS011;76141;49.082;19.306;2024-01-30T11:52:18;48.28;;;28.50;;
85703;SDS011;76141;49.082;19.306;2024-01-30T11:54:44;48.83;;;29.15;;
85703;SDS011;76141;49.082;19.306;2024-01-30T11:57:15;52.08;;;28.63;;
85703;SDS011;76141;49.082;19.306;2024-01-30T11:59:40;51.63;;;29.08;;
85703;SDS011;76141;49.082;19.306;2024-01-30T12:02:05;47.90;;;28.33;;
85703;SDS011;76141;49.082;19.306;2024-01-30T12:04:31;43.33;;;27.40;;
85703;SDS011;76141;49.082;19.306;2024-01-30T12:06:56;49.25;;;27.02;;
85703;SDS011;76141;49.082;19.306;2024-01-30T12:09:22;46.03;;;27.55;;
85703;SDS011;76141;49.082;19.306;2024-01-30T12:11:48;45.88;;;27.35;;
85703;SDS011;76141;49.082;19.306;2024-01-30T12:14:15;47.50;;;28.45;;
85703;SDS011;76141;49.082;19.306;2024-01-30T12:16:41;48.75;;;27.80;;
85703;SDS011;76141;49.082;19.306;2024-01-30T12:19:07;52.05;;;29.38;;
85703;SDS011;76141;49.082;19.306;2024-01-30T12:21:34;49.33;;;28.65;;
85703;SDS011;76141;49.082;19.306;2024-01-30T12:24:00;52.33;;;29.30;;
85703;SDS011;76141;49.082;19.306;2024-01-30T12:26:26;47.90;;;28.10;;
85703;SDS011;76141;49.082;19.306;2024-01-30T12:28:54;47.20;;;27.67;;
85703;SDS011;76141;49.082;19.306;2024-01-30T12:31:25;47.72;;;27.60;;
85703;SDS011;76141;49.082;19.306;2024-01-30T12:33:52;45.53;;;27.70;;
85703;SDS011;76141;49.082;19.306;2024-01-30T12:36:17;42.15;;;27.05;;
85703;SDS011;76141;49.082;19.306;2024-01-30T12:38:43;45.63;;;27.23;;
85703;SDS011;76141;49.082;19.306;2024-01-30T12:41:08;50.70;;;28.02;;
85703;SDS011;76141;49.082;19.306;2024-01-30T12:43:34;42.55;;;26.70;;
85703;SDS011;76141;49.082;19.306;2024-01-30T12:45:59;41.70;;;26.02;;
85703;SDS011;76141;49.082;19.306;2024-01-30T12:48:26;43.97;;;25.83;;
85703;SDS011;76141;49.082;19.306;2024-01-30T12:50:53;47.80;;;28.20;;
85703;SDS011;76141;49.082;19.306;2024-01-30T12:53:19;52.38;;;28.73;;
85703;SDS011;76141;49.082;19.306;2024-01-30T12:55:44;50.38;;;28.67;;
85703;SDS011;76141;49.082;19.306;2024-01-30T12:58:10;48.28;;;29.60;;
85703;SDS011;76141;49.082;19.306;2024-01-30T13:00:35;49.78;;;30.10;;
85703;SDS011;76141;49.082;19.306;2024-01-30T13:03:01;50.72;;;29.17;;
85703;SDS011;76141;49.082;19.306;2024-01-30T13:05:27;51.53;;;29.85;;
85703;SDS011;76141;49.082;19.306;2024-01-30T13:07:53;49.70;;;30.05;;
85703;SDS011;76141;49.082;19.306;2024-01-30T13:10:19;50.03;;;28.60;;
85703;SDS011;76141;49.082;19.306;2024-01-30T13:12:45;45.83;;;27.63;;
85703;SDS011;76141;49.082;19.306;2024-01-30T13:15:10;48.05;;;28.00;;
85703;SDS011;76141;49.082;19.306;2024-01-30T13:17:36;47.28;;;28.35;;
85703;SDS011;76141;49.082;19.306;2024-01-30T13:20:02;45.22;;;28.33;;
85703;SDS011;76141;49.082;19.306;2024-01-30T13:22:29;45.20;;;27.73;;
85703;SDS011;76141;49.082;19.306;2024-01-30T13:24:55;46.95;;;28.67;;
85703;SDS011;76141;49.082;19.306;2024-01-30T13:27:22;49.33;;;29.13;;
85703;SDS011;76141;49.082;19.306;2024-01-30T13:29:48;47.70;;;28.83;;
85703;SDS011;76141;49.082;19.306;2024-01-30T13:32:14;50.78;;;29.63;;
85703;SDS011;76141;49.082;19.306;2024-01-30T13:34:42;50.22;;;29.00;;
85703;SDS011;76141;49.082;19.306;2024-01-30T13:37:08;47.15;;;29.30;;
85703;SDS011;76141;49.082;19.306;2024-01-30T13:39:34;45.15;;;28.65;;
85703;SDS011;76141;49.082;19.306;2024-01-30T13:42:01;49.90;;;30.15;;
85703;SDS011;76141;49.082;19.306;2024-01-30T13:44:26;50.35;;;29.10;;
85703;SDS011;76141;49.082;19.306;2024-01-30T13:46:52;47.65;;;29.63;;
85703;SDS011;76141;49.082;19.306;2024-01-30T13:49:20;49.13;;;29.35;;
85703;SDS011;76141;49.082;19.306;2024-01-30T13:51:47;47.95;;;29.65;;
85703;SDS011;76141;49.082;19.306;2024-01-30T13:54:13;48.70;;;29.58;;
85703;SDS011;76141;49.082;19.306;2024-01-30T13:56:40;50.72;;;30.52;;
85703;SDS011;76141;49.082;19.306;2024-01-30T13:59:06;48.20;;;29.25;;
85703;SDS011;76141;49.082;19.306;2024-01-30T14:01:33;50.53;;;30.02;;
85703;SDS011;76141;49.082;19.306;2024-01-30T14:03:59;51.17;;;29.85;;
85703;SDS011;76141;49.082;19.306;2024-01-30T14:06:25;51.63;;;30.73;;
85703;SDS011;76141;49.082;19.306;2024-01-30T14:08:51;51.92;;;30.30;;
85703;SDS011;76141;49.082;19.306;2024-01-30T14:11:18;47.60;;;30.50;;
85703;SDS011;76141;49.082;19.306;2024-01-30T14:13:47;53.83;;;31.42;;